createdAt,value
2022-11-24T00:01:59.945Z,102070.78
2022-11-24T00:04:29.143Z,102114.94
2022-11-24T00:06:58.290Z,101792.59
2022-11-24T00:09:27.406Z,102011.00
2022-11-24T00:11:56.616Z,102064.59
2022-11-24T00:14:27.348Z,102021.41
2022-11-24T00:16:56.674Z,102073.41
2022-11-24T00:19:25.925Z,101928.63
2022-11-24T00:22:15.188Z,102074.31
2022-11-24T00:24:44.766Z,102060.66
2022-11-24T00:27:14.033Z,102075.19
2022-11-24T00:29:44.710Z,101829.78
2022-11-24T00:32:13.923Z,102000.44
2022-11-24T00:34:43.062Z,101952.94
2022-11-24T00:37:12.318Z,101977.28
2022-11-24T00:39:41.519Z,102024.94
2022-11-24T00:42:10.630Z,101852.56
2022-11-24T00:44:39.797Z,101997.31
2022-11-24T00:47:10.503Z,101870.69
2022-11-24T00:49:39.837Z,101840.97
2022-11-24T00:52:08.956Z,102057.41
2022-11-24T00:54:38.169Z,102070.16
2022-11-24T00:57:07.679Z,101881.94
2022-11-24T00:59:36.851Z,102089.16
2022-11-24T01:02:06.146Z,101842.56
2022-11-24T01:04:36.913Z,102047.88
2022-11-24T01:07:06.190Z,102029.94
2022-11-24T01:09:35.447Z,101890.56
2022-11-24T01:12:04.637Z,101911.72
2022-11-24T01:14:34.788Z,101980.16
2022-11-24T01:17:04.185Z,101929.38
2022-11-24T01:19:33.359Z,101828.66
2022-11-24T01:22:04.009Z,101899.34
2022-11-24T01:24:33.424Z,102076.22
2022-11-24T01:27:02.866Z,102078.03
2022-11-24T01:29:32.207Z,102045.19
2022-11-24T01:32:01.356Z,102085.53
2022-11-24T01:34:30.660Z,101885.88
2022-11-24T01:36:59.894Z,102080.34
2022-11-24T01:39:30.609Z,101957.22
2022-11-24T01:42:03.379Z,102096.47
2022-11-24T01:44:33.544Z,101925.25
2022-11-24T01:47:07.774Z,101886.56
2022-11-24T01:49:46.998Z,102079.81
2022-11-24T01:52:21.847Z,102087.72
2022-11-24T01:54:57.139Z,102087.19
2022-11-24T01:57:30.885Z,102081.97
2022-11-24T02:00:05.291Z,102031.97
2022-11-24T02:02:34.953Z,102060.84
2022-11-24T02:05:10.513Z,102095.06
2022-11-24T02:07:41.846Z,102045.97
2022-11-24T02:10:15.531Z,102097.75
2022-11-24T02:12:48.355Z,102071.22
2022-11-24T02:15:18.681Z,101930.44
2022-11-24T02:17:47.922Z,102084.13
2022-11-24T02:20:18.283Z,102020.31
2022-11-24T02:22:54.711Z,101986.63
2022-11-24T02:25:36.867Z,102082.09
2022-11-24T02:28:11.330Z,102097.53
2022-11-24T02:30:40.797Z,102086.22
2022-11-24T02:33:10.133Z,102094.28
2022-11-24T02:35:39.655Z,102042.47
2022-11-24T02:38:08.806Z,102100.19
2022-11-24T02:40:38.292Z,102111.31
2022-11-24T02:43:13.595Z,102089.97
2022-11-24T02:45:42.873Z,102108.44
2022-11-24T02:48:12.280Z,102108.09
2022-11-24T02:50:41.444Z,102134.63
2022-11-24T02:53:10.599Z,101990.56
2022-11-24T02:55:39.733Z,101985.34
2022-11-24T02:58:10.396Z,102084.78
2022-11-24T03:00:40.595Z,102097.84
2022-11-24T03:03:09.813Z,102010.47
2022-11-24T03:05:39.037Z,101948.25
2022-11-24T03:08:08.247Z,102080.69
2022-11-24T03:10:37.382Z,101919.53
2022-11-24T03:13:06.596Z,101957.53
2022-11-24T03:15:37.454Z,102104.59
2022-11-24T03:18:06.628Z,101910.59
2022-11-24T03:20:36.097Z,101901.38
2022-11-24T03:23:05.225Z,102111.31
2022-11-24T03:25:34.448Z,102109.09
2022-11-24T03:28:03.558Z,101895.47
2022-11-24T03:30:32.733Z,102063.91
2022-11-24T03:33:05.517Z,102113.06
2022-11-24T03:35:35.656Z,102104.19
2022-11-24T03:38:04.833Z,102043.44
2022-11-24T03:40:35.133Z,101991.25
2022-11-24T03:43:04.352Z,102055.25
2022-11-24T03:45:48.803Z,102102.97
2022-11-24T03:48:21.733Z,102129.19
2022-11-24T03:50:56.716Z,102067.97
2022-11-24T03:53:27.011Z,102003.25
2022-11-24T03:55:56.804Z,102086.28
2022-11-24T03:58:26.315Z,102082.13
2022-11-24T04:00:56.471Z,102093.66
2022-11-24T04:03:27.710Z,101948.63
2022-11-24T04:05:56.833Z,102023.25
2022-11-24T04:08:26.050Z,102052.03
2022-11-24T04:10:56.566Z,102120.19
2022-11-24T04:13:26.167Z,102040.75
2022-11-24T04:15:55.917Z,102091.50
2022-11-24T04:18:26.806Z,102081.81
2022-11-24T04:20:56.967Z,101853.41
2022-11-24T04:23:26.220Z,102075.94
2022-11-24T04:25:55.340Z,102082.09
2022-11-24T04:28:24.480Z,102086.25
2022-11-24T04:30:53.684Z,102055.28
2022-11-24T04:33:26.462Z,101928.22
2022-11-24T04:35:55.957Z,101908.63
2022-11-24T04:39:24.689Z,102088.59
2022-11-24T04:41:14.235Z,102026.56
2022-11-24T04:43:45.197Z,102090.91
2022-11-24T04:46:14.380Z,102088.38
2022-11-24T04:48:47.146Z,102097.88
2022-11-24T04:51:17.258Z,102061.47
2022-11-24T04:53:46.373Z,102081.66
2022-11-24T04:56:15.484Z,102049.72
2022-11-24T04:58:44.553Z,102068.91
2022-11-24T05:01:13.818Z,102065.94
2022-11-24T05:03:43.030Z,102013.88
2022-11-24T05:06:13.661Z,102047.75
2022-11-24T05:08:42.950Z,102056.59
2022-11-24T05:11:11.978Z,102042.69
2022-11-24T05:13:41.092Z,102058.94
2022-11-24T05:16:10.556Z,102037.81
2022-11-24T05:18:40.002Z,102056.25
2022-11-24T05:21:09.115Z,102053.78
2022-11-24T05:23:39.749Z,102064.47
2022-11-24T05:26:09.136Z,102057.13
2022-11-24T05:28:38.355Z,102060.84
2022-11-24T05:31:08.512Z,102005.69
2022-11-24T05:33:38.678Z,102041.69
2022-11-24T05:36:09.304Z,101966.25
2022-11-24T05:38:40.081Z,101928.13
2022-11-24T05:41:09.152Z,101847.69
2022-11-24T05:43:38.323Z,101985.16
2022-11-24T05:46:07.680Z,101957.13
2022-11-24T05:48:36.868Z,102015.16
2022-11-24T05:51:09.217Z,102031.44
2022-11-24T05:53:40.168Z,101994.59
2022-11-24T05:56:10.027Z,102004.88
2022-11-24T05:58:39.149Z,102013.47
2022-11-24T06:01:09.550Z,102007.22
2022-11-24T06:03:38.873Z,101938.78
2022-11-24T06:06:08.927Z,101944.16
2022-11-24T06:08:39.627Z,101995.63
2022-11-24T06:11:19.159Z,101987.91
2022-11-24T06:13:50.079Z,101986.75
2022-11-24T06:16:20.543Z,101990.00
2022-11-24T06:18:49.746Z,101968.56
2022-11-24T06:21:18.934Z,101984.63
2022-11-24T06:23:51.272Z,101990.34
2022-11-24T06:26:20.496Z,101983.22
2022-11-24T06:28:49.660Z,101980.59
2022-11-24T06:31:19.169Z,101898.16
2022-11-24T06:33:48.419Z,101987.47
2022-11-24T06:36:17.648Z,101976.94
2022-11-24T06:38:46.837Z,101941.09
2022-11-24T06:41:18.699Z,101956.59
2022-11-24T06:43:48.455Z,101958.03
2022-11-24T06:46:17.545Z,101967.38
2022-11-24T06:48:46.600Z,101966.06
2022-11-24T06:51:15.985Z,101929.13
2022-11-24T06:53:45.074Z,101935.06
2022-11-24T06:56:17.032Z,101936.00
2022-11-24T06:58:49.311Z,101963.44
2022-11-24T07:01:19.116Z,101921.41
2022-11-24T07:03:50.020Z,101953.84
2022-11-24T07:06:20.277Z,101887.34
2022-11-24T07:08:49.756Z,101930.28
2022-11-24T07:11:21.068Z,101924.94
2022-11-24T07:13:59.631Z,101928.56
2022-11-24T07:16:37.910Z,101887.09
2022-11-24T07:19:07.138Z,101922.25
2022-11-24T07:21:36.686Z,101816.91
2022-11-24T07:24:11.120Z,101922.06
2022-11-24T07:26:40.690Z,101913.41
2022-11-24T07:29:13.751Z,101924.47
2022-11-24T07:31:43.088Z,101907.94
2022-11-24T07:34:15.278Z,101909.03
2022-11-24T07:36:50.641Z,101945.38
2022-11-24T07:39:20.028Z,101933.44
2022-11-24T07:41:52.023Z,101943.22
2022-11-24T07:44:22.617Z,101877.00
2022-11-24T07:46:54.367Z,101937.22
2022-11-24T07:49:25.545Z,101935.56
2022-11-24T07:51:54.672Z,101649.34
2022-11-24T07:54:23.784Z,101869.31
2022-11-24T07:56:53.058Z,101938.09
2022-11-24T07:59:23.636Z,101936.44
2022-11-24T08:01:52.852Z,101927.94
2022-11-24T08:04:21.953Z,101911.97
2022-11-24T08:06:51.116Z,101911.66
2022-11-24T08:09:22.396Z,101902.38
2022-11-24T08:11:51.525Z,101846.91
2022-11-24T08:14:20.635Z,101900.53
2022-11-24T08:16:51.357Z,101886.63
2022-11-24T08:19:20.735Z,101897.16
2022-11-24T08:21:49.825Z,101872.97
2022-11-24T08:24:18.984Z,101869.34
2022-11-24T08:26:48.145Z,101889.41
2022-11-24T08:29:17.591Z,101893.44
2022-11-24T08:31:46.790Z,101885.50
2022-11-24T08:34:17.508Z,101882.81
2022-11-24T08:36:46.618Z,101870.38
2022-11-24T08:39:15.711Z,101885.59
2022-11-24T08:41:44.951Z,101886.66
2022-11-24T08:44:16.275Z,101824.91
2022-11-24T08:46:45.483Z,101887.09
2022-11-24T08:49:15.688Z,101875.09
2022-11-24T08:51:47.415Z,101783.56
2022-11-24T08:54:19.101Z,101836.13
2022-11-24T08:56:51.090Z,101875.72
2022-11-24T08:59:20.281Z,101869.06
2022-11-24T09:01:49.761Z,101843.31
2022-11-24T09:04:20.669Z,101875.13
2022-11-24T09:06:51.316Z,101864.06
2022-11-24T09:09:20.388Z,101862.31
2022-11-24T09:11:49.624Z,101858.75
2022-11-24T09:14:18.738Z,101851.00
2022-11-24T09:16:47.946Z,101848.94
2022-11-24T09:19:17.145Z,101856.72
2022-11-24T09:21:46.224Z,101840.97
2022-11-24T09:24:16.927Z,101820.38
2022-11-24T09:26:47.615Z,101840.88
2022-11-24T09:29:20.879Z,101824.66
2022-11-24T09:31:50.985Z,101830.44
2022-11-24T09:34:20.101Z,101759.16
2022-11-24T09:36:49.219Z,101826.31
2022-11-24T09:39:19.923Z,101834.38
2022-11-24T09:42:06.091Z,101831.28
2022-11-24T09:44:59.199Z,101826.25
2022-11-24T09:47:40.285Z,101794.03
2022-11-24T09:50:16.980Z,101803.09
2022-11-24T09:52:52.214Z,101825.53
2022-11-24T09:55:34.812Z,101827.03
2022-11-24T09:58:13.199Z,101825.53
2022-11-24T10:00:44.173Z,101759.00
2022-11-24T10:03:21.629Z,101761.75
2022-11-24T10:05:52.958Z,101801.06
2022-11-24T10:08:38.105Z,101796.28
2022-11-24T10:11:14.981Z,101782.81
2022-11-24T10:14:22.909Z,101775.69
2022-11-24T10:16:59.214Z,101779.97
2022-11-24T10:19:42.748Z,101780.34
2022-11-24T10:22:29.713Z,101784.38
2022-11-24T10:25:15.445Z,101790.16
2022-11-24T10:27:48.892Z,101788.97
2022-11-24T10:30:21.238Z,101788.56
2022-11-24T10:33:00.538Z,101783.06
2022-11-24T10:35:40.693Z,101816.00
2022-11-24T10:38:23.624Z,101780.47
2022-11-24T10:40:57.851Z,101709.16
2022-11-24T10:43:34.328Z,101763.53
2022-11-24T10:46:14.144Z,101731.78
2022-11-24T10:48:48.782Z,101757.00
2022-11-24T10:51:39.076Z,101704.00
2022-11-24T10:54:15.557Z,101759.09
2022-11-24T10:56:56.961Z,101733.41
2022-11-24T10:59:37.836Z,101754.34
2022-11-24T11:02:35.675Z,101751.66
2022-11-24T11:05:28.383Z,101757.75
2022-11-24T11:08:21.443Z,101753.47
2022-11-24T11:10:51.915Z,101747.22
2022-11-24T11:13:29.783Z,101707.47
2022-11-24T11:16:01.191Z,101753.47
2022-11-24T11:18:34.262Z,101741.56
2022-11-24T11:21:04.214Z,101738.47
2022-11-24T11:23:36.839Z,101731.47
2022-11-24T11:26:32.747Z,101621.31
2022-11-24T11:34:54.315Z,101712.09
2022-11-24T11:37:26.182Z,101714.44
2022-11-24T11:39:56.895Z,101721.41
2022-11-24T11:43:01.228Z,101709.78
2022-11-24T11:45:30.755Z,101686.91
2022-11-24T11:48:18.330Z,101710.28
2022-11-24T11:51:21.791Z,101684.00
2022-11-24T11:53:46.914Z,101708.09
2022-11-24T11:56:26.146Z,101697.88
2022-11-24T11:59:30.500Z,101611.97
2022-11-24T12:02:29.264Z,101686.09
2022-11-24T12:05:02.950Z,101695.34
2022-11-24T12:07:50.295Z,101693.69
2022-11-24T12:10:29.298Z,101690.59
2022-11-24T12:13:10.908Z,101698.34
2022-11-24T12:15:45.028Z,101691.97
2022-11-24T12:21:27.220Z,101686.13
2022-11-24T12:24:06.459Z,101692.03
2022-11-24T12:26:43.142Z,101686.66
2022-11-24T12:29:36.139Z,101694.22
2022-11-24T12:32:17.131Z,101662.53
2022-11-24T12:34:54.257Z,101674.94
2022-11-24T12:37:45.324Z,101679.19
2022-11-24T12:40:19.507Z,101659.69
2022-11-24T12:42:57.436Z,101670.44
2022-11-24T12:45:35.155Z,101664.78
2022-11-24T12:48:21.346Z,101659.97
2022-11-24T12:50:54.278Z,101658.94
2022-11-24T12:53:27.980Z,101651.28
2022-11-24T12:56:01.818Z,101630.00
2022-11-24T12:58:39.515Z,101641.97
2022-11-24T13:01:18.962Z,101631.81
2022-11-24T13:04:01.490Z,101624.03
2022-11-24T13:06:37.250Z,101611.44
2022-11-24T13:09:11.129Z,101633.13
2022-11-24T13:11:42.805Z,101621.50
2022-11-24T13:14:19.281Z,101611.25
2022-11-24T13:17:27.553Z,101617.59
2022-11-24T13:19:43.096Z,101610.13
2022-11-24T13:22:17.876Z,101606.84
2022-11-24T13:25:05.433Z,101598.34
2022-11-24T13:27:47.320Z,101549.22
2022-11-24T13:30:55.057Z,101595.94
2022-11-24T13:33:35.583Z,101593.69
2022-11-24T13:36:32.927Z,101585.59
2022-11-24T13:39:03.396Z,101599.28
2022-11-24T13:42:43.290Z,101579.28
2022-11-24T13:45:02.568Z,101570.25
2022-11-24T13:47:45.633Z,101563.69
2022-11-24T13:50:50.449Z,101560.41
2022-11-24T13:53:27.739Z,101555.34
2022-11-24T13:56:00.205Z,101531.50
2022-11-24T13:58:34.406Z,101502.41
2022-11-24T14:01:13.210Z,101501.66
2022-11-24T14:04:07.020Z,101505.22
2022-11-24T14:06:41.271Z,101519.91
2022-11-24T14:09:25.806Z,101514.84
2022-11-24T14:12:08.336Z,101516.47
2022-11-24T14:14:37.784Z,101513.13
2022-11-24T14:17:18.191Z,101506.88
2022-11-24T14:19:49.287Z,101491.38
2022-11-24T14:22:20.031Z,101483.09
2022-11-24T14:24:54.702Z,101517.34
2022-11-24T14:27:30.546Z,101514.44
2022-11-24T14:30:02.278Z,101492.56
2022-11-24T14:35:25.750Z,101491.19
2022-11-24T14:37:55.106Z,101501.91
2022-11-24T14:41:10.782Z,101491.97
2022-11-24T14:43:40.604Z,101488.91
2022-11-24T14:46:13.403Z,101494.16
2022-11-24T14:48:50.466Z,101462.97
2022-11-24T14:51:24.838Z,101474.84
2022-11-24T14:53:57.245Z,101483.00
2022-11-24T14:56:29.219Z,101474.50
2022-11-24T14:58:59.738Z,101449.28
2022-11-24T15:01:34.380Z,101471.59
2022-11-24T15:07:18.806Z,101453.53
2022-11-24T15:09:54.117Z,101444.59
2022-11-24T15:12:29.704Z,101429.94
2022-11-24T15:15:07.544Z,101464.84
2022-11-24T15:17:37.769Z,101454.38
2022-11-24T15:20:18.990Z,101405.16
2022-11-24T15:22:49.863Z,101412.69
2022-11-24T15:25:33.946Z,101445.34
2022-11-24T15:28:03.491Z,101438.75
2022-11-24T15:30:36.655Z,101427.34
2022-11-24T15:33:14.314Z,101438.88
2022-11-24T15:35:45.533Z,101442.81
2022-11-24T15:38:15.616Z,101440.16
2022-11-24T15:40:47.561Z,101449.94
2022-11-24T15:43:25.152Z,101453.47
2022-11-24T15:45:54.381Z,101441.59
2022-11-24T15:48:23.721Z,101414.19
2022-11-24T15:50:55.079Z,101425.63
2022-11-24T15:53:29.557Z,101424.47
2022-11-24T15:55:59.694Z,101454.13
2022-11-24T15:58:29.000Z,101432.47
2022-11-24T16:00:58.205Z,101434.09
2022-11-24T16:06:24.613Z,101414.19
2022-11-24T16:08:54.586Z,101391.16
2022-11-24T16:11:24.399Z,101434.25
2022-11-24T16:13:54.512Z,101429.19
2022-11-24T16:16:25.118Z,101418.03
2022-11-24T16:18:54.493Z,101418.19
2022-11-24T16:21:25.276Z,101414.13
2022-11-24T16:23:56.660Z,101400.69
2022-11-24T16:26:25.846Z,101398.06
2022-11-24T16:28:55.148Z,101396.53
2022-11-24T16:31:26.519Z,101379.66
2022-11-24T16:33:55.718Z,101400.06
2022-11-24T16:36:27.171Z,101387.41
2022-11-24T16:38:56.303Z,101330.53
2022-11-24T16:41:27.866Z,101366.88
2022-11-24T16:43:57.086Z,101392.09
2022-11-24T16:46:27.009Z,101344.06
2022-11-24T16:49:00.670Z,101361.03
2022-11-24T16:51:34.938Z,101280.50
2022-11-24T16:54:04.755Z,101349.66
2022-11-24T16:56:33.958Z,101333.34
2022-11-24T16:59:07.044Z,101344.22
2022-11-24T17:01:36.484Z,101292.28
2022-11-24T17:04:12.447Z,101336.25
2022-11-24T17:06:46.418Z,101318.38
2022-11-24T17:09:15.563Z,101305.06
2022-11-24T17:11:44.845Z,101323.84
2022-11-24T17:14:14.209Z,101318.78
2022-11-24T17:16:44.298Z,101323.94
2022-11-24T17:19:13.572Z,101132.56
2022-11-24T17:21:42.791Z,101298.50
2022-11-24T17:24:17.884Z,101263.41
2022-11-24T17:26:49.147Z,101319.53
2022-11-24T17:29:18.563Z,101168.72
2022-11-24T17:31:47.993Z,101229.09
2022-11-24T17:34:17.239Z,101299.13
2022-11-24T17:36:46.618Z,101278.72
2022-11-24T17:39:21.785Z,101294.97
2022-11-24T17:41:54.119Z,101224.66
2022-11-24T17:44:23.456Z,101020.94
2022-11-24T17:46:52.677Z,101146.34
2022-11-24T17:49:21.877Z,101163.03
2022-11-24T17:51:51.140Z,101243.28
2022-11-24T17:54:45.308Z,101202.28
2022-11-24T17:57:11.343Z,101209.22
2022-11-24T17:59:40.664Z,101255.91
2022-11-24T18:02:11.809Z,101227.34
2022-11-24T18:04:41.091Z,101234.16
2022-11-24T18:07:10.372Z,101226.09
2022-11-24T18:09:41.176Z,101108.91
2022-11-24T18:12:10.708Z,101155.97
2022-11-24T18:14:39.957Z,101257.28
2022-11-24T18:17:09.846Z,101243.50
2022-11-24T18:19:39.146Z,101088.91
2022-11-24T18:22:08.379Z,101217.44
2022-11-24T18:24:38.252Z,101181.25
2022-11-24T18:27:09.138Z,101160.75
2022-11-24T18:29:38.328Z,101196.16
2022-11-24T18:32:08.240Z,101259.69
2022-11-24T18:34:37.992Z,101128.88
2022-11-24T18:37:08.309Z,101083.72
2022-11-24T18:39:37.532Z,101024.94
2022-11-24T18:42:09.043Z,101125.94
2022-11-24T18:44:38.334Z,101193.22
2022-11-24T18:47:07.826Z,101198.69
2022-11-24T18:49:37.032Z,101075.25
2022-11-24T18:52:06.533Z,101083.19
2022-11-24T18:54:35.994Z,101096.97
2022-11-24T18:57:05.511Z,101206.44
2022-11-24T18:59:37.247Z,101144.50
2022-11-24T19:02:06.459Z,101199.81
2022-11-24T19:04:35.840Z,101062.09
2022-11-24T19:07:05.191Z,101189.78
2022-11-24T19:09:34.506Z,101199.22
2022-11-24T19:12:04.231Z,101151.50
2022-11-24T19:14:35.449Z,101173.53
2022-11-24T19:17:05.914Z,101055.06
2022-11-24T19:19:35.139Z,101185.75
2022-11-24T19:22:05.135Z,100877.22
2022-11-24T19:24:34.704Z,101076.13
2022-11-24T19:27:04.003Z,101048.25
2022-11-24T19:29:33.180Z,101117.03
2022-11-24T19:32:03.955Z,101161.25
2022-11-24T19:34:33.463Z,101154.13
2022-11-24T19:37:02.877Z,101126.34
2022-11-24T19:39:32.063Z,101130.38
2022-11-24T19:42:01.211Z,101123.28
2022-11-24T19:44:30.455Z,101002.66
2022-11-24T19:46:59.659Z,101050.81
2022-11-24T19:49:30.316Z,101069.81
2022-11-24T19:51:59.472Z,100953.28
2022-11-24T19:54:28.699Z,100907.59
2022-11-24T19:56:57.937Z,100969.47
2022-11-24T19:59:27.157Z,101031.91
2022-11-24T20:01:56.960Z,101010.69
2022-11-24T20:04:26.247Z,101089.44
2022-11-24T20:06:57.050Z,100991.00
2022-11-24T20:09:26.998Z,101116.19
2022-11-24T20:11:56.374Z,101025.53
2022-11-24T20:14:25.508Z,101031.78
2022-11-24T20:16:54.833Z,101097.56
2022-11-24T20:19:24.138Z,101115.19
2022-11-24T20:21:56.474Z,100934.78
2022-11-24T20:24:26.195Z,100932.66
2022-11-24T20:26:58.624Z,100950.63
2022-11-24T20:29:28.720Z,101012.84
2022-11-24T20:31:58.473Z,100931.56
2022-11-24T20:34:28.783Z,101069.53
2022-11-24T20:36:59.486Z,100944.81
2022-11-24T20:39:30.039Z,100901.84
2022-11-24T20:41:59.722Z,101068.16
2022-11-24T20:44:30.307Z,100907.56
2022-11-24T20:47:00.733Z,101079.16
2022-11-24T20:49:30.542Z,100887.19
2022-11-24T20:52:02.213Z,101049.72
2022-11-24T20:54:31.399Z,100982.78
2022-11-24T20:57:00.649Z,100975.19
2022-11-24T20:59:29.813Z,100991.72
2022-11-24T21:01:59.565Z,101030.06
2022-11-24T21:04:29.337Z,100888.88
2022-11-24T21:07:00.106Z,100909.28
2022-11-24T21:09:29.323Z,100973.56
2022-11-24T21:11:58.543Z,100844.84
2022-11-24T21:14:31.203Z,100902.09
2022-11-24T21:17:04.270Z,100848.13
2022-11-24T21:19:33.384Z,100825.59
2022-11-24T21:22:04.147Z,100942.41
2022-11-24T21:24:33.465Z,100987.50
2022-11-24T21:27:02.765Z,100943.25
2022-11-24T21:29:32.021Z,101028.16
2022-11-24T21:32:01.366Z,101006.31
2022-11-24T21:34:30.607Z,100823.97
2022-11-24T21:36:59.814Z,100989.66
2022-11-24T21:39:31.274Z,100921.56
2022-11-24T21:42:00.813Z,100955.00
2022-11-24T21:44:31.469Z,100813.44
2022-11-24T21:47:00.689Z,100968.00
2022-11-24T21:49:29.842Z,100822.59
2022-11-24T21:51:59.069Z,100924.88
2022-11-24T21:54:28.283Z,100953.00
2022-11-24T21:56:58.981Z,100777.53
2022-11-24T21:59:28.177Z,100859.69
2022-11-24T22:01:57.915Z,100844.91
2022-11-24T22:04:27.105Z,100787.56
2022-11-24T22:06:56.270Z,100717.94
2022-11-24T22:09:25.418Z,100821.16
2022-11-24T22:11:55.167Z,100921.78
2022-11-24T22:14:25.895Z,100803.88
2022-11-24T22:16:55.085Z,100779.31
2022-11-24T22:19:24.316Z,100789.66
2022-11-24T22:21:53.513Z,100825.38
2022-11-24T22:24:27.054Z,100915.47
2022-11-24T22:26:56.703Z,100899.94
2022-11-24T22:29:28.375Z,100800.47
2022-11-24T22:31:57.991Z,100776.66
2022-11-24T22:34:27.233Z,100899.50
2022-11-24T22:36:56.572Z,100831.25
2022-11-24T22:39:25.734Z,100711.44
2022-11-24T22:41:56.194Z,100893.97
2022-11-24T22:44:25.398Z,100887.34
2022-11-24T22:46:56.142Z,100735.13
2022-11-24T22:49:25.468Z,100750.34
2022-11-24T22:51:54.672Z,100829.81
2022-11-24T22:54:23.955Z,100741.88
2022-11-24T22:56:53.117Z,100869.88
2022-11-24T22:59:22.348Z,100828.75
2022-11-24T23:01:51.504Z,100712.31
2022-11-24T23:04:22.304Z,100731.69
2022-11-24T23:06:51.547Z,100853.31
2022-11-24T23:09:20.845Z,100832.41
2022-11-24T23:11:50.321Z,100850.78
2022-11-24T23:14:19.652Z,100658.69
2022-11-24T23:16:49.088Z,100776.19
2022-11-24T23:19:18.700Z,100737.31
2022-11-24T23:21:49.563Z,100848.34
2022-11-24T23:24:19.005Z,100808.28
2022-11-24T23:26:48.217Z,100660.28
2022-11-24T23:29:17.551Z,100572.31
2022-11-24T23:31:46.851Z,100673.94
2022-11-24T23:34:16.221Z,100778.75
2022-11-24T23:36:45.455Z,100768.16
2022-11-24T23:39:16.423Z,100763.31
2022-11-24T23:41:45.732Z,100707.13
2022-11-24T23:44:15.153Z,100729.03
2022-11-24T23:46:44.418Z,100593.97
2022-11-24T23:49:13.740Z,100734.94
2022-11-24T23:51:43.141Z,100738.66
2022-11-24T23:54:12.348Z,100631.34
2022-11-24T23:56:43.063Z,100789.88
2022-11-24T23:59:13.845Z,100789.88
